메인 페이지
METAR-TAF:

METAR-TAF

공항 :

모리셔스, 모리셔스

서 시우사구르 람굴람 국제공항

위도: 20-26S, 경도: 057-40E, 고도: 55m

현재 날씨관측

예보는 29분 전, 09:00시(UTC)에 발표되었습니다.
23kt, 순간 최대 풍속 36kt
온도 29°C
습도 79%
기압 990 hPa
시정: 5000m
고도 1000ft 상공 구름 조금
고도 1300ft 상공 구름 조금, 적란운.
고도 1400ft 상공 구름 보통
고도 25000ft 상공 구름 많음
시계 내 소나기

METAR: FIMP 180900Z 01023G36KT 5000 VCSH FEW010 FEW013CB SCT014 BKN250 29/25 Q0990

시각: 13:29 (09:29 UTC)

예보

예보는 2 시간 29분 전, 07:00시(UTC)에 발표되었습니다.
예보 대상 시간: 18일 08시부터 18일 20시까지 (UTC)
25kt, 순간 최대 풍속 40kt
시정: 7000m
고도 1000ft 상공 구름 조금
고도 1400ft 상공 구름 많음
약한소나기
일시적
18일 08시부터 18일 14시까지 (UTC)
시정: 3000m
고도 600ft 상공 구름 조금
고도 1200ft 상공 구름 조금, 적란운.
고도 1300ft 상공 구름 많음
고도 4500ft 상공 구름 많음
전환 중
18일 12시부터 18일 14시까지 (UTC)
북북서25kt, 순간 최대 풍속 35kt
전환 중
18일 18시부터 18일 20시까지 (UTC)
20kt, 순간 최대 풍속 30kt

TAF: FIMP 180700Z 1808/1820 36025G40KT 7000 -SHRA FEW010 BKN014 TEMPO 1808/1814 MAX50KT 3000 SHRA/TSRA FEW006 FEW012CB BKN013 BKN045 BECMG 1812/1814 33025G35KT BECMG 1818/1820 36020G30KT

4,000개 이상의 공항 관측 자료 및 예보 (METAR 및 TAF 보고).

지도상에서 검색 가능한 기상관측소가 노란 점과 빨간 점으로 표시되어 있습니다.

기상관측소 명을 보려면 표시 위로 마우스를 이동하세요.

날씨 관측과 예보를 보려면 클릭하세요.

지도 변경 : 확대하려면 엑스 표시가 있는 녹색 버튼, 축소하려면 빼기 표시가 있는 녹색 버튼, 다음 페이지의 지도를 보려면 녹색 화살표를 클릭하세요.


METAR-TAF: